sensor_id;sensor_type;location;lat;lon;timestamp;temperature;humidity
50606;DHT22;36557;53.572;10.170;2022-10-22T00:02:05;13.90;99.90
50606;DHT22;36557;53.572;10.170;2022-10-22T00:04:33;13.90;99.90
50606;DHT22;36557;53.572;10.170;2022-10-22T00:06:59;13.90;99.90
50606;DHT22;36557;53.572;10.170;2022-10-22T00:09:24;13.90;99.90
50606;DHT22;36557;53.572;10.170;2022-10-22T00:11:51;13.90;99.90
50606;DHT22;36557;53.572;10.170;2022-10-22T00:14:16;13.90;99.90
50606;DHT22;36557;53.572;10.170;2022-10-22T00:16:42;13.90;99.90
50606;DHT22;36557;53.572;10.170;2022-10-22T00:19:08;13.90;99.90
50606;DHT22;36557;53.572;10.170;2022-10-22T00:21:35;13.90;99.90
50606;DHT22;36557;53.572;10.170;2022-10-22T00:24:01;13.90;99.90
50606;DHT22;36557;53.572;10.170;2022-10-22T00:26:27;13.90;99.90
50606;DHT22;36557;53.572;10.170;2022-10-22T00:28:53;13.90;99.90
50606;DHT22;36557;53.572;10.170;2022-10-22T00:31:19;13.90;99.90
50606;DHT22;36557;53.572;10.170;2022-10-22T00:33:46;13.90;99.90
50606;DHT22;36557;53.572;10.170;2022-10-22T00:36:12;13.90;99.90
50606;DHT22;36557;53.572;10.170;2022-10-22T00:38:38;13.90;99.90
50606;DHT22;36557;53.572;10.170;2022-10-22T00:41:05;14.00;99.90
50606;DHT22;36557;53.572;10.170;2022-10-22T00:43:30;14.00;99.90
50606;DHT22;36557;53.572;10.170;2022-10-22T00:45:56;14.00;99.90
50606;DHT22;36557;53.572;10.170;2022-10-22T00:53:38;13.90;99.90
50606;DHT22;36557;53.572;10.170;2022-10-22T00:56:06;13.90;99.90
50606;DHT22;36557;53.572;10.170;2022-10-22T00:58:36;13.90;99.90
50606;DHT22;36557;53.572;10.170;2022-10-22T01:01:04;13.90;99.90
50606;DHT22;36557;53.572;10.170;2022-10-22T01:03:31;13.90;99.90
50606;DHT22;36557;53.572;10.170;2022-10-22T01:06:02;13.90;99.90
50606;DHT22;36557;53.572;10.170;2022-10-22T01:08:45;13.90;99.90
50606;DHT22;36557;53.572;10.170;2022-10-22T01:16:51;13.80;99.90
50606;DHT22;36557;53.572;10.170;2022-10-22T01:21:59;13.90;99.90
50606;DHT22;36557;53.572;10.170;2022-10-22T01:24:49;13.80;99.90
50606;DHT22;36557;53.572;10.170;2022-10-22T01:27:51;13.90;99.90
50606;DHT22;36557;53.572;10.170;2022-10-22T01:30:13;13.90;99.90
50606;DHT22;36557;53.572;10.170;2022-10-22T01:32:49;13.80;99.90
50606;DHT22;36557;53.572;10.170;2022-10-22T01:35:26;13.90;99.90
50606;DHT22;36557;53.572;10.170;2022-10-22T01:37:55;13.90;99.90
50606;DHT22;36557;53.572;10.170;2022-10-22T01:40:23;13.90;99.90
50606;DHT22;36557;53.572;10.170;2022-10-22T01:43:00;13.90;99.90
50606;DHT22;36557;53.572;10.170;2022-10-22T01:45:28;13.90;99.90
50606;DHT22;36557;53.572;10.170;2022-10-22T01:56:55;13.80;99.90
50606;DHT22;36557;53.572;10.170;2022-10-22T01:59:43;13.80;99.90
50606;DHT22;36557;53.572;10.170;2022-10-22T02:02:33;13.60;99.90
50606;DHT22;36557;53.572;10.170;2022-10-22T02:05:09;13.60;99.90
50606;DHT22;36557;53.572;10.170;2022-10-22T02:07:49;13.50;99.90
50606;DHT22;36557;53.572;10.170;2022-10-22T02:10:16;13.50;99.90
50606;DHT22;36557;53.572;10.170;2022-10-22T02:12:44;13.30;99.90
50606;DHT22;36557;53.572;10.170;2022-10-22T02:15:13;13.20;99.90
50606;DHT22;36557;53.572;10.170;2022-10-22T02:17:41;13.20;99.90
50606;DHT22;36557;53.572;10.170;2022-10-22T02:20:29;13.20;99.90
50606;DHT22;36557;53.572;10.170;2022-10-22T02:22:56;13.10;99.90
50606;DHT22;36557;53.572;10.170;2022-10-22T02:25:26;13.00;99.90
50606;DHT22;36557;53.572;10.170;2022-10-22T02:28:03;13.00;99.90
50606;DHT22;36557;53.572;10.170;2022-10-22T02:30:33;13.00;99.90
50606;DHT22;36557;53.572;10.170;2022-10-22T02:33:12;12.90;99.90
50606;DHT22;36557;53.572;10.170;2022-10-22T02:35:40;12.80;99.90
50606;DHT22;36557;53.572;10.170;2022-10-22T02:38:07;12.80;99.90
50606;DHT22;36557;53.572;10.170;2022-10-22T02:40:34;12.70;99.90
50606;DHT22;36557;53.572;10.170;2022-10-22T02:42:59;12.70;99.90
50606;DHT22;36557;53.572;10.170;2022-10-22T02:45:28;12.70;99.90
50606;DHT22;36557;53.572;10.170;2022-10-22T02:47:54;12.70;99.90
50606;DHT22;36557;53.572;10.170;2022-10-22T02:50:19;12.60;99.90
50606;DHT22;36557;53.572;10.170;2022-10-22T02:52:45;12.60;99.90
50606;DHT22;36557;53.572;10.170;2022-10-22T02:55:11;12.60;99.90
50606;DHT22;36557;53.572;10.170;2022-10-22T02:57:36;12.60;99.90
50606;DHT22;36557;53.572;10.170;2022-10-22T03:00:04;12.60;99.90
50606;DHT22;36557;53.572;10.170;2022-10-22T03:02:30;12.60;99.90
50606;DHT22;36557;53.572;10.170;2022-10-22T03:04:56;12.60;99.90
50606;DHT22;36557;53.572;10.170;2022-10-22T03:07:21;12.50;99.90
50606;DHT22;36557;53.572;10.170;2022-10-22T03:09:47;12.50;99.90
50606;DHT22;36557;53.572;10.170;2022-10-22T03:12:13;12.40;99.90
50606;DHT22;36557;53.572;10.170;2022-10-22T03:14:38;12.40;99.90
50606;DHT22;36557;53.572;10.170;2022-10-22T03:17:04;12.30;99.90
50606;DHT22;36557;53.572;10.170;2022-10-22T03:19:30;12.30;99.90
50606;DHT22;36557;53.572;10.170;2022-10-22T03:21:59;12.30;99.90
50606;DHT22;36557;53.572;10.170;2022-10-22T03:24:34;12.30;99.90
50606;DHT22;36557;53.572;10.170;2022-10-22T03:27:01;12.30;99.90
50606;DHT22;36557;53.572;10.170;2022-10-22T03:29:27;12.30;99.90
50606;DHT22;36557;53.572;10.170;2022-10-22T03:31:54;12.30;99.90
50606;DHT22;36557;53.572;10.170;2022-10-22T03:34:20;12.20;99.90
50606;DHT22;36557;53.572;10.170;2022-10-22T03:36:46;12.10;99.90
50606;DHT22;36557;53.572;10.170;2022-10-22T03:39:13;12.10;99.90
50606;DHT22;36557;53.572;10.170;2022-10-22T03:41:41;12.10;99.90
50606;DHT22;36557;53.572;10.170;2022-10-22T03:44:07;12.10;99.90
50606;DHT22;36557;53.572;10.170;2022-10-22T03:46:33;12.10;99.90
50606;DHT22;36557;53.572;10.170;2022-10-22T03:48:58;12.10;99.90
50606;DHT22;36557;53.572;10.170;2022-10-22T03:51:26;12.10;99.90
50606;DHT22;36557;53.572;10.170;2022-10-22T03:53:52;12.00;99.90
50606;DHT22;36557;53.572;10.170;2022-10-22T03:56:18;12.10;99.90
50606;DHT22;36557;53.572;10.170;2022-10-22T03:58:44;12.20;99.90
50606;DHT22;36557;53.572;10.170;2022-10-22T04:01:11;12.20;99.90
50606;DHT22;36557;53.572;10.170;2022-10-22T04:03:37;12.30;99.90
50606;DHT22;36557;53.572;10.170;2022-10-22T04:06:05;12.40;99.90
50606;DHT22;36557;53.572;10.170;2022-10-22T04:08:32;12.40;99.90
50606;DHT22;36557;53.572;10.170;2022-10-22T04:10:58;12.50;99.90
50606;DHT22;36557;53.572;10.170;2022-10-22T04:13:23;12.50;99.90
50606;DHT22;36557;53.572;10.170;2022-10-22T04:15:49;12.60;99.90
50606;DHT22;36557;53.572;10.170;2022-10-22T04:18:20;12.60;99.90
50606;DHT22;36557;53.572;10.170;2022-10-22T04:20:46;12.70;99.90
50606;DHT22;36557;53.572;10.170;2022-10-22T04:23:12;12.70;99.90
50606;DHT22;36557;53.572;10.170;2022-10-22T04:25:39;12.70;99.90
50606;DHT22;36557;53.572;10.170;2022-10-22T04:28:08;12.80;99.90
50606;DHT22;36557;53.572;10.170;2022-10-22T04:30:35;12.80;99.90
50606;DHT22;36557;53.572;10.170;2022-10-22T04:33:01;12.70;99.90
50606;DHT22;36557;53.572;10.170;2022-10-22T04:35:27;12.70;99.90
50606;DHT22;36557;53.572;10.170;2022-10-22T04:37:54;12.70;99.90
50606;DHT22;36557;53.572;10.170;2022-10-22T04:40:20;12.70;99.90
50606;DHT22;36557;53.572;10.170;2022-10-22T04:42:46;12.70;99.90
50606;DHT22;36557;53.572;10.170;2022-10-22T04:45:11;12.70;99.90
50606;DHT22;36557;53.572;10.170;2022-10-22T04:47:37;12.70;99.90
50606;DHT22;36557;53.572;10.170;2022-10-22T04:50:03;12.60;99.90
50606;DHT22;36557;53.572;10.170;2022-10-22T04:52:30;12.60;99.90
50606;DHT22;36557;53.572;10.170;2022-10-22T04:54:56;12.60;99.90
50606;DHT22;36557;53.572;10.170;2022-10-22T04:57:21;12.50;99.90
50606;DHT22;36557;53.572;10.170;2022-10-22T04:59:47;12.60;99.90
50606;DHT22;36557;53.572;10.170;2022-10-22T05:02:13;12.50;99.90
50606;DHT22;36557;53.572;10.170;2022-10-22T05:04:38;12.60;99.90
50606;DHT22;36557;53.572;10.170;2022-10-22T05:07:04;12.50;99.90
50606;DHT22;36557;53.572;10.170;2022-10-22T05:09:30;12.50;99.90
50606;DHT22;36557;53.572;10.170;2022-10-22T05:11:55;12.50;99.90
50606;DHT22;36557;53.572;10.170;2022-10-22T05:14:23;12.50;99.90
50606;DHT22;36557;53.572;10.170;2022-10-22T05:16:49;12.50;99.90
50606;DHT22;36557;53.572;10.170;2022-10-22T05:19:26;12.50;99.90
50606;DHT22;36557;53.572;10.170;2022-10-22T05:21:55;12.40;99.90
50606;DHT22;36557;53.572;10.170;2022-10-22T05:24:21;12.40;99.90
50606;DHT22;36557;53.572;10.170;2022-10-22T05:26:51;12.50;99.90
50606;DHT22;36557;53.572;10.170;2022-10-22T05:29:18;12.50;99.90
50606;DHT22;36557;53.572;10.170;2022-10-22T05:31:44;12.50;99.90
50606;DHT22;36557;53.572;10.170;2022-10-22T05:34:10;12.50;99.90
50606;DHT22;36557;53.572;10.170;2022-10-22T05:36:36;12.50;99.90
50606;DHT22;36557;53.572;10.170;2022-10-22T05:39:02;12.50;99.90
50606;DHT22;36557;53.572;10.170;2022-10-22T05:41:28;12.50;99.90
50606;DHT22;36557;53.572;10.170;2022-10-22T05:43:57;12.50;99.90
50606;DHT22;36557;53.572;10.170;2022-10-22T05:46:25;12.50;99.90
50606;DHT22;36557;53.572;10.170;2022-10-22T05:48:59;12.50;99.90
50606;DHT22;36557;53.572;10.170;2022-10-22T05:51:27;12.50;99.90
50606;DHT22;36557;53.572;10.170;2022-10-22T05:53:58;12.50;99.90
50606;DHT22;36557;53.572;10.170;2022-10-22T05:56:26;12.50;99.90
50606;DHT22;36557;53.572;10.170;2022-10-22T05:58:52;12.50;99.90
50606;DHT22;36557;53.572;10.170;2022-10-22T06:01:24;12.50;99.90
50606;DHT22;36557;53.572;10.170;2022-10-22T06:03:52;12.50;99.90
50606;DHT22;36557;53.572;10.170;2022-10-22T06:06:21;12.50;99.90
50606;DHT22;36557;53.572;10.170;2022-10-22T06:08:51;12.50;99.90
50606;DHT22;36557;53.572;10.170;2022-10-22T06:11:19;12.50;99.90
50606;DHT22;36557;53.572;10.170;2022-10-22T06:13:45;12.50;99.90
50606;DHT22;36557;53.572;10.170;2022-10-22T06:16:12;12.50;99.90
50606;DHT22;36557;53.572;10.170;2022-10-22T06:18:37;12.50;99.90
50606;DHT22;36557;53.572;10.170;2022-10-22T06:21:09;12.50;99.90
50606;DHT22;36557;53.572;10.170;2022-10-22T06:23:36;12.50;99.90
50606;DHT22;36557;53.572;10.170;2022-10-22T06:26:03;12.50;99.90
50606;DHT22;36557;53.572;10.170;2022-10-22T06:28:29;12.50;99.90
50606;DHT22;36557;53.572;10.170;2022-10-22T06:30:57;12.50;99.90
50606;DHT22;36557;53.572;10.170;2022-10-22T06:33:23;12.50;99.90
50606;DHT22;36557;53.572;10.170;2022-10-22T06:35:49;12.50;99.90
50606;DHT22;36557;53.572;10.170;2022-10-22T06:38:15;12.50;99.90
50606;DHT22;36557;53.572;10.170;2022-10-22T06:40:40;12.50;99.90
50606;DHT22;36557;53.572;10.170;2022-10-22T06:43:13;12.60;99.90
50606;DHT22;36557;53.572;10.170;2022-10-22T06:45:39;12.60;99.90
50606;DHT22;36557;53.572;10.170;2022-10-22T06:48:05;12.60;99.90
50606;DHT22;36557;53.572;10.170;2022-10-22T06:50:33;12.60;99.90
50606;DHT22;36557;53.572;10.170;2022-10-22T06:52:59;12.60;99.90
50606;DHT22;36557;53.572;10.170;2022-10-22T06:55:24;12.60;99.90
50606;DHT22;36557;53.572;10.170;2022-10-22T06:57:50;12.70;99.90
50606;DHT22;36557;53.572;10.170;2022-10-22T07:00:16;12.70;99.90
50606;DHT22;36557;53.572;10.170;2022-10-22T07:02:42;12.70;99.90
50606;DHT22;36557;53.572;10.170;2022-10-22T07:05:08;12.70;99.90
50606;DHT22;36557;53.572;10.170;2022-10-22T07:07:33;12.70;99.90
50606;DHT22;36557;53.572;10.170;2022-10-22T07:09:59;12.80;99.90
50606;DHT22;36557;53.572;10.170;2022-10-22T07:12:25;12.80;99.90
50606;DHT22;36557;53.572;10.170;2022-10-22T07:14:51;12.80;99.90
50606;DHT22;36557;53.572;10.170;2022-10-22T07:17:16;12.90;99.90
50606;DHT22;36557;53.572;10.170;2022-10-22T07:19:42;12.90;99.90
50606;DHT22;36557;53.572;10.170;2022-10-22T07:22:08;12.90;99.90
50606;DHT22;36557;53.572;10.170;2022-10-22T07:24:33;12.90;99.90
50606;DHT22;36557;53.572;10.170;2022-10-22T07:26:59;12.90;99.90
50606;DHT22;36557;53.572;10.170;2022-10-22T07:29:25;12.90;99.90
50606;DHT22;36557;53.572;10.170;2022-10-22T07:31:51;13.00;99.90
50606;DHT22;36557;53.572;10.170;2022-10-22T07:34:17;13.00;99.90
50606;DHT22;36557;53.572;10.170;2022-10-22T07:36:42;13.00;99.90
50606;DHT22;36557;53.572;10.170;2022-10-22T07:39:08;13.00;99.90
50606;DHT22;36557;53.572;10.170;2022-10-22T07:41:34;13.00;99.90
50606;DHT22;36557;53.572;10.170;2022-10-22T07:43:59;13.00;99.90
50606;DHT22;36557;53.572;10.170;2022-10-22T07:46:26;13.00;99.90
50606;DHT22;36557;53.572;10.170;2022-10-22T07:48:52;13.10;99.90
50606;DHT22;36557;53.572;10.170;2022-10-22T07:51:17;13.10;99.90
50606;DHT22;36557;53.572;10.170;2022-10-22T07:53:43;13.10;99.90
50606;DHT22;36557;53.572;10.170;2022-10-22T07:56:09;13.20;99.90
50606;DHT22;36557;53.572;10.170;2022-10-22T07:58:35;13.20;99.90
50606;DHT22;36557;53.572;10.170;2022-10-22T08:01:02;13.30;99.90
50606;DHT22;36557;53.572;10.170;2022-10-22T08:03:30;13.30;99.90
50606;DHT22;36557;53.572;10.170;2022-10-22T08:05:56;13.50;99.90
50606;DHT22;36557;53.572;10.170;2022-10-22T08:08:22;13.60;99.90
50606;DHT22;36557;53.572;10.170;2022-10-22T08:10:50;13.70;99.90
50606;DHT22;36557;53.572;10.170;2022-10-22T08:13:17;13.70;99.90
50606;DHT22;36557;53.572;10.170;2022-10-22T08:15:43;13.80;99.90
50606;DHT22;36557;53.572;10.170;2022-10-22T08:18:11;13.90;99.90
50606;DHT22;36557;53.572;10.170;2022-10-22T08:20:37;14.10;99.90
50606;DHT22;36557;53.572;10.170;2022-10-22T08:23:03;14.20;99.90
50606;DHT22;36557;53.572;10.170;2022-10-22T08:25:28;14.30;99.90
50606;DHT22;36557;53.572;10.170;2022-10-22T08:27:54;14.40;99.90
50606;DHT22;36557;53.572;10.170;2022-10-22T08:30:20;14.40;99.90
50606;DHT22;36557;53.572;10.170;2022-10-22T08:32:46;14.60;99.90
50606;DHT22;36557;53.572;10.170;2022-10-22T08:35:12;14.60;99.90
50606;DHT22;36557;53.572;10.170;2022-10-22T08:37:37;14.80;99.90
50606;DHT22;36557;53.572;10.170;2022-10-22T08:40:03;14.90;99.90
50606;DHT22;36557;53.572;10.170;2022-10-22T08:42:37;15.00;99.90
50606;DHT22;36557;53.572;10.170;2022-10-22T08:50:49;15.30;99.90
50606;DHT22;36557;53.572;10.170;2022-10-22T08:53:19;15.30;99.90
50606;DHT22;36557;53.572;10.170;2022-10-22T08:55:45;15.40;99.90
50606;DHT22;36557;53.572;10.170;2022-10-22T08:58:35;15.30;99.90
50606;DHT22;36557;53.572;10.170;2022-10-22T09:03:45;15.40;99.90
50606;DHT22;36557;53.572;10.170;2022-10-22T09:06:20;15.50;99.90
50606;DHT22;36557;53.572;10.170;2022-10-22T09:08:47;15.50;99.90
50606;DHT22;36557;53.572;10.170;2022-10-22T09:11:15;15.60;99.90
50606;DHT22;36557;53.572;10.170;2022-10-22T09:13:43;15.70;99.90
50606;DHT22;36557;53.572;10.170;2022-10-22T09:16:25;15.70;99.90
50606;DHT22;36557;53.572;10.170;2022-10-22T09:24:43;15.70;99.90
50606;DHT22;36557;53.572;10.170;2022-10-22T09:27:12;15.80;99.90
50606;DHT22;36557;53.572;10.170;2022-10-22T09:29:39;15.90;99.90
50606;DHT22;36557;53.572;10.170;2022-10-22T09:32:05;16.00;99.90
50606;DHT22;36557;53.572;10.170;2022-10-22T09:34:31;16.10;99.90
50606;DHT22;36557;53.572;10.170;2022-10-22T09:37:03;16.20;99.90
50606;DHT22;36557;53.572;10.170;2022-10-22T09:39:47;16.20;99.90
50606;DHT22;36557;53.572;10.170;2022-10-22T09:42:16;16.00;99.90
50606;DHT22;36557;53.572;10.170;2022-10-22T09:44:42;16.20;99.90
50606;DHT22;36557;53.572;10.170;2022-10-22T09:47:36;16.30;99.90
50606;DHT22;36557;53.572;10.170;2022-10-22T09:50:28;16.40;99.90
50606;DHT22;36557;53.572;10.170;2022-10-22T09:53:04;16.60;99.90
50606;DHT22;36557;53.572;10.170;2022-10-22T09:55:37;16.70;99.90
50606;DHT22;36557;53.572;10.170;2022-10-22T09:58:03;16.70;99.90
50606;DHT22;36557;53.572;10.170;2022-10-22T10:00:29;16.80;99.90
50606;DHT22;36557;53.572;10.170;2022-10-22T10:02:57;16.70;99.90
50606;DHT22;36557;53.572;10.170;2022-10-22T10:05:32;16.70;99.90
50606;DHT22;36557;53.572;10.170;2022-10-22T10:08:01;16.80;99.90
50606;DHT22;36557;53.572;10.170;2022-10-22T10:10:50;16.80;99.90
50606;DHT22;36557;53.572;10.170;2022-10-22T10:15:57;16.90;99.90
50606;DHT22;36557;53.572;10.170;2022-10-22T10:18:39;16.90;99.90
50606;DHT22;36557;53.572;10.170;2022-10-22T10:21:31;17.00;99.90
50606;DHT22;36557;53.572;10.170;2022-10-22T10:40:51;17.40;99.90
50606;DHT22;36557;53.572;10.170;2022-10-22T10:46:14;17.60;99.90
50606;DHT22;36557;53.572;10.170;2022-10-22T10:48:49;17.80;99.90
50606;DHT22;36557;53.572;10.170;2022-10-22T10:56:51;18.00;99.90
50606;DHT22;36557;53.572;10.170;2022-10-22T11:05:42;18.10;99.90
50606;DHT22;36557;53.572;10.170;2022-10-22T11:08:20;18.30;99.90
50606;DHT22;36557;53.572;10.170;2022-10-22T11:11:29;18.40;99.90
50606;DHT22;36557;53.572;10.170;2022-10-22T11:14:48;18.40;99.90
50606;DHT22;36557;53.572;10.170;2022-10-22T11:17:16;18.40;99.90
50606;DHT22;36557;53.572;10.170;2022-10-22T11:19:50;18.60;99.90
50606;DHT22;36557;53.572;10.170;2022-10-22T11:22:46;18.60;99.90
50606;DHT22;36557;53.572;10.170;2022-10-22T11:25:21;18.70;99.90
50606;DHT22;36557;53.572;10.170;2022-10-22T11:28:00;18.80;99.90
50606;DHT22;36557;53.572;10.170;2022-10-22T11:30:32;19.00;99.90
50606;DHT22;36557;53.572;10.170;2022-10-22T11:33:03;18.90;99.90
50606;DHT22;36557;53.572;10.170;2022-10-22T11:35:33;19.00;99.90
50606;DHT22;36557;53.572;10.170;2022-10-22T11:38:02;19.10;99.90
50606;DHT22;36557;53.572;10.170;2022-10-22T11:40:37;19.00;99.90
50606;DHT22;36557;53.572;10.170;2022-10-22T11:43:08;19.00;99.90
50606;DHT22;36557;53.572;10.170;2022-10-22T11:45:41;19.10;99.90
50606;DHT22;36557;53.572;10.170;2022-10-22T11:50:57;18.90;99.90
50606;DHT22;36557;53.572;10.170;2022-10-22T11:55:52;18.90;99.90
50606;DHT22;36557;53.572;10.170;2022-10-22T12:03:40;19.00;99.90
50606;DHT22;36557;53.572;10.170;2022-10-22T12:14:18;18.90;99.90
50606;DHT22;36557;53.572;10.170;2022-10-22T12:17:11;18.80;99.90
50606;DHT22;36557;53.572;10.170;2022-10-22T12:19:40;18.80;99.90
50606;DHT22;36557;53.572;10.170;2022-10-22T12:24:40;18.90;99.90
50606;DHT22;36557;53.572;10.170;2022-10-22T12:27:26;18.90;99.90
50606;DHT22;36557;53.572;10.170;2022-10-22T12:29:59;18.90;99.90
50606;DHT22;36557;53.572;10.170;2022-10-22T12:32:36;19.00;99.90
50606;DHT22;36557;53.572;10.170;2022-10-22T12:35:08;19.10;99.90
50606;DHT22;36557;53.572;10.170;2022-10-22T12:37:35;19.10;99.90
50606;DHT22;36557;53.572;10.170;2022-10-22T12:40:14;18.90;99.90
50606;DHT22;36557;53.572;10.170;2022-10-22T12:42:50;18.90;99.90
50606;DHT22;36557;53.572;10.170;2022-10-22T12:45:17;18.70;99.90
50606;DHT22;36557;53.572;10.170;2022-10-22T12:47:56;18.70;99.90
50606;DHT22;36557;53.572;10.170;2022-10-22T12:50:32;18.50;99.90
50606;DHT22;36557;53.572;10.170;2022-10-22T12:52:58;18.50;99.90
50606;DHT22;36557;53.572;10.170;2022-10-22T12:55:25;18.40;99.90
50606;DHT22;36557;53.572;10.170;2022-10-22T12:57:51;18.40;99.90
50606;DHT22;36557;53.572;10.170;2022-10-22T13:00:26;18.50;99.90
50606;DHT22;36557;53.572;10.170;2022-10-22T13:02:53;18.50;99.90
50606;DHT22;36557;53.572;10.170;2022-10-22T13:05:20;18.40;99.90
50606;DHT22;36557;53.572;10.170;2022-10-22T13:07:52;18.30;99.90
50606;DHT22;36557;53.572;10.170;2022-10-22T13:12:53;18.40;99.90
50606;DHT22;36557;53.572;10.170;2022-10-22T13:20:49;18.50;99.90
50606;DHT22;36557;53.572;10.170;2022-10-22T13:23:22;18.50;99.90
50606;DHT22;36557;53.572;10.170;2022-10-22T13:26:13;18.60;99.90
50606;DHT22;36557;53.572;10.170;2022-10-22T13:28:39;18.70;99.90
50606;DHT22;36557;53.572;10.170;2022-10-22T13:31:22;18.70;99.90
50606;DHT22;36557;53.572;10.170;2022-10-22T13:33:57;18.70;99.90
50606;DHT22;36557;53.572;10.170;2022-10-22T13:36:24;18.70;99.90
50606;DHT22;36557;53.572;10.170;2022-10-22T13:38:49;18.70;99.90
50606;DHT22;36557;53.572;10.170;2022-10-22T13:41:27;18.70;99.90
50606;DHT22;36557;53.572;10.170;2022-10-22T13:43:53;18.70;99.90
50606;DHT22;36557;53.572;10.170;2022-10-22T13:46:20;18.80;99.90
50606;DHT22;36557;53.572;10.170;2022-10-22T13:48:48;18.70;99.90
50606;DHT22;36557;53.572;10.170;2022-10-22T13:51:27;18.70;99.90
50606;DHT22;36557;53.572;10.170;2022-10-22T13:53:55;18.60;99.90
50606;DHT22;36557;53.572;10.170;2022-10-22T13:56:22;18.60;99.90
50606;DHT22;36557;53.572;10.170;2022-10-22T13:58:49;18.60;99.90
50606;DHT22;36557;53.572;10.170;2022-10-22T14:01:20;18.80;99.90
50606;DHT22;36557;53.572;10.170;2022-10-22T14:03:48;18.80;99.90
50606;DHT22;36557;53.572;10.170;2022-10-22T14:06:16;18.80;99.90
50606;DHT22;36557;53.572;10.170;2022-10-22T14:08:45;18.80;99.90
50606;DHT22;36557;53.572;10.170;2022-10-22T14:11:11;18.70;99.90
50606;DHT22;36557;53.572;10.170;2022-10-22T14:13:37;18.50;99.90
50606;DHT22;36557;53.572;10.170;2022-10-22T14:16:06;18.40;99.90
50606;DHT22;36557;53.572;10.170;2022-10-22T14:18:32;18.30;99.90
50606;DHT22;36557;53.572;10.170;2022-10-22T14:21:01;18.30;99.90
50606;DHT22;36557;53.572;10.170;2022-10-22T14:23:33;18.20;99.90
50606;DHT22;36557;53.572;10.170;2022-10-22T14:25:59;18.10;99.90
50606;DHT22;36557;53.572;10.170;2022-10-22T14:28:25;18.10;99.90
50606;DHT22;36557;53.572;10.170;2022-10-22T14:30:52;18.10;99.90
50606;DHT22;36557;53.572;10.170;2022-10-22T14:33:29;18.00;99.90
50606;DHT22;36557;53.572;10.170;2022-10-22T14:35:56;18.10;99.90
50606;DHT22;36557;53.572;10.170;2022-10-22T14:38:22;18.10;99.90
50606;DHT22;36557;53.572;10.170;2022-10-22T14:40:48;18.20;99.90
50606;DHT22;36557;53.572;10.170;2022-10-22T14:43:26;18.30;99.90
50606;DHT22;36557;53.572;10.170;2022-10-22T14:45:53;18.40;99.90
50606;DHT22;36557;53.572;10.170;2022-10-22T14:48:18;18.40;99.90
50606;DHT22;36557;53.572;10.170;2022-10-22T14:50:45;18.50;99.90
50606;DHT22;36557;53.572;10.170;2022-10-22T14:53:11;18.50;99.90
50606;DHT22;36557;53.572;10.170;2022-10-22T14:55:43;18.40;99.90
50606;DHT22;36557;53.572;10.170;2022-10-22T14:58:09;18.30;99.90
50606;DHT22;36557;53.572;10.170;2022-10-22T15:00:36;18.30;99.90
50606;DHT22;36557;53.572;10.170;2022-10-22T15:03:03;18.20;99.90
50606;DHT22;36557;53.572;10.170;2022-10-22T15:05:29;18.20;99.90
50606;DHT22;36557;53.572;10.170;2022-10-22T15:07:55;18.10;99.90
50606;DHT22;36557;53.572;10.170;2022-10-22T15:10:23;18.00;99.90
50606;DHT22;36557;53.572;10.170;2022-10-22T15:12:49;17.80;99.90
50606;DHT22;36557;53.572;10.170;2022-10-22T15:15:15;17.70;99.90
50606;DHT22;36557;53.572;10.170;2022-10-22T15:17:40;17.60;99.90
50606;DHT22;36557;53.572;10.170;2022-10-22T15:20:06;17.50;99.90
50606;DHT22;36557;53.572;10.170;2022-10-22T15:22:33;17.40;99.90
50606;DHT22;36557;53.572;10.170;2022-10-22T15:25:05;17.40;99.90
50606;DHT22;36557;53.572;10.170;2022-10-22T15:27:31;17.40;99.90
50606;DHT22;36557;53.572;10.170;2022-10-22T15:29:56;17.30;99.90
50606;DHT22;36557;53.572;10.170;2022-10-22T15:32:26;17.20;99.90
50606;DHT22;36557;53.572;10.170;2022-10-22T15:34:54;17.20;99.90
50606;DHT22;36557;53.572;10.170;2022-10-22T15:37:20;17.20;99.90
50606;DHT22;36557;53.572;10.170;2022-10-22T15:39:46;17.10;99.90
50606;DHT22;36557;53.572;10.170;2022-10-22T15:42:13;17.00;99.90
50606;DHT22;36557;53.572;10.170;2022-10-22T15:44:41;17.00;99.90
50606;DHT22;36557;53.572;10.170;2022-10-22T15:47:07;17.00;99.90
50606;DHT22;36557;53.572;10.170;2022-10-22T15:49:36;16.90;99.90
50606;DHT22;36557;53.572;10.170;2022-10-22T15:52:02;16.80;99.90
50606;DHT22;36557;53.572;10.170;2022-10-22T15:54:29;16.90;99.90
50606;DHT22;36557;53.572;10.170;2022-10-22T15:56:56;16.90;99.90
50606;DHT22;36557;53.572;10.170;2022-10-22T15:59:22;16.90;99.90
50606;DHT22;36557;53.572;10.170;2022-10-22T16:01:49;16.80;99.90
50606;DHT22;36557;53.572;10.170;2022-10-22T16:04:15;16.80;99.90
50606;DHT22;36557;53.572;10.170;2022-10-22T16:06:43;16.70;99.90
50606;DHT22;36557;53.572;10.170;2022-10-22T16:09:23;16.60;99.90
50606;DHT22;36557;53.572;10.170;2022-10-22T16:11:50;16.50;99.90
50606;DHT22;36557;53.572;10.170;2022-10-22T16:14:18;16.50;99.90
50606;DHT22;36557;53.572;10.170;2022-10-22T16:16:47;16.50;99.90
50606;DHT22;36557;53.572;10.170;2022-10-22T16:19:14;16.40;99.90
50606;DHT22;36557;53.572;10.170;2022-10-22T16:21:41;16.40;99.90
50606;DHT22;36557;53.572;10.170;2022-10-22T16:24:07;16.40;99.90
50606;DHT22;36557;53.572;10.170;2022-10-22T16:26:34;16.30;99.90
50606;DHT22;36557;53.572;10.170;2022-10-22T16:29:00;16.30;99.90
50606;DHT22;36557;53.572;10.170;2022-10-22T16:31:26;16.30;99.90
50606;DHT22;36557;53.572;10.170;2022-10-22T16:33:52;16.30;99.90
50606;DHT22;36557;53.572;10.170;2022-10-22T16:36:19;16.20;99.90
50606;DHT22;36557;53.572;10.170;2022-10-22T16:38:46;16.20;99.90
50606;DHT22;36557;53.572;10.170;2022-10-22T16:41:18;16.20;99.90
50606;DHT22;36557;53.572;10.170;2022-10-22T16:43:45;16.20;99.90
50606;DHT22;36557;53.572;10.170;2022-10-22T16:46:13;16.10;99.90
50606;DHT22;36557;53.572;10.170;2022-10-22T16:48:42;16.10;99.90
50606;DHT22;36557;53.572;10.170;2022-10-22T16:51:11;16.00;99.90
50606;DHT22;36557;53.572;10.170;2022-10-22T16:53:37;16.00;99.90
50606;DHT22;36557;53.572;10.170;2022-10-22T16:56:03;16.00;99.90
50606;DHT22;36557;53.572;10.170;2022-10-22T16:58:29;16.00;99.90
50606;DHT22;36557;53.572;10.170;2022-10-22T17:00:55;16.00;99.90
50606;DHT22;36557;53.572;10.170;2022-10-22T17:03:20;16.00;99.90
50606;DHT22;36557;53.572;10.170;2022-10-22T17:05:46;15.90;99.90
50606;DHT22;36557;53.572;10.170;2022-10-22T17:08:12;15.90;99.90